createdAt,value
2022-12-25T00:00:34.477Z,73.54
2022-12-25T00:03:25.285Z,73.81
2022-12-25T00:05:56.077Z,73.84
2022-12-25T00:08:26.766Z,73.68
2022-12-25T00:11:01.206Z,73.54
2022-12-25T00:13:31.929Z,73.71
2022-12-25T00:16:06.230Z,73.70
2022-12-25T00:18:37.033Z,73.88
2022-12-25T00:21:08.188Z,73.90
2022-12-25T00:23:38.914Z,73.89
2022-12-25T00:26:10.513Z,73.75
2022-12-25T00:28:41.216Z,73.76
2022-12-25T00:31:12.452Z,73.81
2022-12-25T00:33:44.013Z,73.91
2022-12-25T00:36:15.222Z,73.58
2022-12-25T00:38:46.188Z,73.88
2022-12-25T00:41:17.913Z,73.34
2022-12-25T00:43:48.530Z,73.78
2022-12-25T00:46:19.448Z,73.77
2022-12-25T00:48:50.323Z,73.78
2022-12-25T00:51:21.177Z,74.03
2022-12-25T00:53:51.950Z,74.08
2022-12-25T00:56:22.685Z,73.70
2022-12-25T00:58:53.586Z,74.05
2022-12-25T01:01:24.475Z,73.82
2022-12-25T01:03:55.360Z,73.60
2022-12-25T01:06:26.057Z,73.89
2022-12-25T01:09:14.442Z,73.43
2022-12-25T01:11:45.528Z,73.60
2022-12-25T01:14:16.233Z,73.81
2022-12-25T01:16:47.011Z,73.76
2022-12-25T01:19:17.664Z,73.56
2022-12-25T01:21:48.407Z,73.83
2022-12-25T01:24:19.087Z,73.73
2022-12-25T01:26:49.809Z,73.33
2022-12-25T01:29:20.584Z,73.33
2022-12-25T01:31:51.322Z,73.49
2022-12-25T01:34:22.050Z,73.36
2022-12-25T01:36:52.964Z,73.67
2022-12-25T01:39:23.683Z,73.89
2022-12-25T01:41:54.355Z,73.45
2022-12-25T01:44:42.425Z,73.22
2022-12-25T01:47:13.144Z,73.25
2022-12-25T01:49:44.183Z,73.57
2022-12-25T01:52:18.838Z,73.54
2022-12-25T01:54:55.278Z,73.34
2022-12-25T01:57:26.823Z,73.65
2022-12-25T01:59:57.637Z,73.18
2022-12-25T02:02:28.635Z,73.63
2022-12-25T02:04:59.971Z,73.10
2022-12-25T02:07:31.321Z,72.75
2022-12-25T02:10:02.179Z,73.01
2022-12-25T02:12:33.623Z,73.09
2022-12-25T02:15:06.428Z,72.74
2022-12-25T02:17:39.701Z,72.61
2022-12-25T02:20:18.303Z,72.78
2022-12-25T02:22:52.094Z,73.11
2022-12-25T02:25:27.214Z,73.21
2022-12-25T02:28:01.774Z,72.91
2022-12-25T02:30:33.616Z,73.16
2022-12-25T02:33:18.694Z,73.12
2022-12-25T02:35:51.622Z,73.02
2022-12-25T02:38:23.447Z,72.72
2022-12-25T02:40:55.034Z,72.60
2022-12-25T02:43:44.205Z,72.71
2022-12-25T02:46:33.322Z,72.72
2022-12-25T02:49:22.734Z,72.92
2022-12-25T02:52:11.936Z,73.00
2022-12-25T02:55:07.033Z,72.84
2022-12-25T02:57:56.082Z,72.97
2022-12-25T03:00:49.646Z,72.96
2022-12-25T03:03:49.276Z,72.77
2022-12-25T03:06:45.993Z,73.20
2022-12-25T03:09:35.016Z,72.91
2022-12-25T03:12:06.921Z,72.93
2022-12-25T03:14:55.432Z,72.93
2022-12-25T03:17:26.364Z,72.98
2022-12-25T03:20:14.672Z,72.83
2022-12-25T03:23:02.895Z,72.86
2022-12-25T03:25:51.297Z,72.93
2022-12-25T03:28:22.043Z,72.79
2022-12-25T03:31:13.582Z,72.69
2022-12-25T03:34:45.958Z,72.70
2022-12-25T03:37:36.779Z,72.83
2022-12-25T03:40:27.571Z,72.66
2022-12-25T03:43:17.966Z,72.58
2022-12-25T03:46:07.256Z,72.41
2022-12-25T03:48:55.601Z,72.68
2022-12-25T03:51:44.769Z,72.82
2022-12-25T03:54:32.974Z,72.88
2022-12-25T03:57:21.111Z,72.91
2022-12-25T04:00:09.299Z,72.80
2022-12-25T04:02:57.462Z,72.61
2022-12-25T04:05:45.751Z,72.89
2022-12-25T04:08:34.244Z,72.86
2022-12-25T04:11:22.910Z,72.61
2022-12-25T04:14:11.889Z,72.64
2022-12-25T04:17:01.138Z,72.72
2022-12-25T04:19:50.253Z,72.99
2022-12-25T04:22:39.028Z,72.84
2022-12-25T04:25:29.819Z,72.82
2022-12-25T04:28:21.257Z,72.52
2022-12-25T04:31:10.633Z,72.72
2022-12-25T04:34:00.005Z,72.93
2022-12-25T04:36:31.410Z,72.83
2022-12-25T04:39:02.641Z,73.24
2022-12-25T04:41:34.019Z,72.61
2022-12-25T04:44:05.759Z,72.72
2022-12-25T04:46:37.312Z,72.66
2022-12-25T04:49:08.561Z,72.55
2022-12-25T04:51:39.880Z,72.18
2022-12-25T04:54:11.327Z,72.16
2022-12-25T04:56:45.746Z,72.42
2022-12-25T04:59:17.599Z,71.99
2022-12-25T05:01:48.890Z,72.29
2022-12-25T05:04:20.245Z,72.27
2022-12-25T05:06:51.707Z,72.07
2022-12-25T05:09:23.283Z,72.01
2022-12-25T05:11:54.987Z,71.73
2022-12-25T05:14:26.281Z,72.21
2022-12-25T05:16:57.522Z,71.74
2022-12-25T05:19:28.902Z,72.10
2022-12-25T05:22:00.295Z,71.87
2022-12-25T05:24:31.969Z,71.88
2022-12-25T05:27:03.091Z,71.96
2022-12-25T05:29:34.245Z,72.05
2022-12-25T05:32:05.829Z,71.99
2022-12-25T05:34:37.284Z,72.04
2022-12-25T05:37:08.920Z,72.03
2022-12-25T05:39:40.165Z,71.94
2022-12-25T05:42:11.546Z,71.65
2022-12-25T05:44:42.970Z,71.85
2022-12-25T05:47:14.406Z,71.75
2022-12-25T05:49:45.747Z,71.98
2022-12-25T05:52:16.914Z,71.81
2022-12-25T05:54:48.098Z,71.89
2022-12-25T05:57:19.449Z,71.95
2022-12-25T05:59:50.877Z,71.81
2022-12-25T06:02:22.484Z,71.45
2022-12-25T06:04:53.971Z,71.36
2022-12-25T06:07:25.174Z,71.39
2022-12-25T06:09:56.524Z,71.55
2022-12-25T06:12:28.020Z,71.66
2022-12-25T06:14:59.390Z,71.86
2022-12-25T06:17:30.538Z,71.86
2022-12-25T06:20:01.792Z,71.17
2022-12-25T06:22:33.476Z,71.44
2022-12-25T06:25:05.260Z,70.96
2022-12-25T06:27:36.669Z,71.16
2022-12-25T06:30:08.931Z,71.44
2022-12-25T06:32:39.957Z,71.09
2022-12-25T06:35:11.220Z,71.09
2022-12-25T06:37:42.669Z,70.97
2022-12-25T06:40:14.635Z,71.00
2022-12-25T06:42:45.916Z,71.09
2022-12-25T06:45:17.260Z,70.77
2022-12-25T06:47:48.716Z,70.96
2022-12-25T06:50:20.169Z,71.10
2022-12-25T06:52:51.710Z,71.02
2022-12-25T06:55:22.989Z,70.97
2022-12-25T06:57:54.091Z,71.20
2022-12-25T07:00:25.565Z,71.27
2022-12-25T07:02:57.239Z,71.38
2022-12-25T07:05:28.847Z,70.99
2022-12-25T07:08:00.200Z,70.54
2022-12-25T07:10:31.416Z,70.87
2022-12-25T07:13:02.618Z,70.69
2022-12-25T07:15:33.973Z,71.10
2022-12-25T07:18:05.542Z,70.94
2022-12-25T07:20:36.954Z,70.86
2022-12-25T07:23:08.127Z,70.68
2022-12-25T07:25:39.589Z,71.06
2022-12-25T07:28:11.096Z,70.85
2022-12-25T07:30:42.555Z,70.61
2022-12-25T07:33:13.739Z,70.66
2022-12-25T07:35:45.070Z,71.03
2022-12-25T07:38:16.524Z,70.98
2022-12-25T07:40:48.232Z,70.91
2022-12-25T07:43:19.622Z,70.88
2022-12-25T07:45:51.029Z,70.91
2022-12-25T07:48:22.265Z,70.96
2022-12-25T07:50:58.274Z,70.92
2022-12-25T07:53:29.948Z,70.92
2022-12-25T07:56:02.315Z,71.02
2022-12-25T07:58:33.456Z,71.29
2022-12-25T08:01:05.804Z,71.13
2022-12-25T08:03:37.382Z,71.25
2022-12-25T08:06:10.529Z,71.10
2022-12-25T08:08:42.289Z,70.92
2022-12-25T08:11:13.673Z,70.93
2022-12-25T08:13:44.822Z,70.83
2022-12-25T08:16:16.209Z,70.87
2022-12-25T08:18:47.779Z,70.81
2022-12-25T08:21:20.045Z,71.00
2022-12-25T08:23:51.459Z,70.86
2022-12-25T08:26:23.789Z,70.97
2022-12-25T08:28:55.218Z,70.83
2022-12-25T08:31:27.748Z,70.82
2022-12-25T08:33:59.755Z,70.76
2022-12-25T08:36:31.211Z,70.92
2022-12-25T08:39:03.561Z,71.01
2022-12-25T08:41:36.749Z,70.87
2022-12-25T08:44:08.209Z,70.81
2022-12-25T08:46:40.663Z,70.92
2022-12-25T08:49:12.032Z,70.74
2022-12-25T08:51:45.170Z,70.72
2022-12-25T08:54:16.573Z,70.76
2022-12-25T08:56:48.029Z,70.71
2022-12-25T08:59:19.468Z,70.66
2022-12-25T09:01:50.738Z,70.61
2022-12-25T09:04:22.070Z,70.51
2022-12-25T09:06:53.519Z,70.28
2022-12-25T09:09:28.965Z,70.29
2022-12-25T09:12:00.424Z,70.32
2022-12-25T09:14:32.020Z,70.22
2022-12-25T09:17:03.382Z,70.15
2022-12-25T09:19:34.783Z,70.14
2022-12-25T09:22:06.231Z,70.20
2022-12-25T09:24:39.548Z,70.05
2022-12-25T09:27:10.688Z,69.95
2022-12-25T09:29:44.542Z,70.02
2022-12-25T09:32:15.763Z,70.00
2022-12-25T09:34:47.183Z,69.96
2022-12-25T09:37:18.607Z,69.90
2022-12-25T09:39:50.095Z,69.95
2022-12-25T09:42:21.667Z,69.90
2022-12-25T09:44:54.645Z,69.79
2022-12-25T09:47:28.055Z,69.65
2022-12-25T09:50:00.197Z,69.57
2022-12-25T09:52:31.912Z,69.53
2022-12-25T09:55:05.219Z,69.43
2022-12-25T09:57:36.722Z,69.40
2022-12-25T10:00:14.015Z,69.48
2022-12-25T10:02:57.875Z,69.36
2022-12-25T10:05:35.828Z,69.24
2022-12-25T10:08:08.856Z,68.92
2022-12-25T10:10:47.646Z,68.94
2022-12-25T10:13:27.495Z,68.58
2022-12-25T10:16:00.906Z,68.73
2022-12-25T10:18:36.335Z,68.64
2022-12-25T10:21:12.792Z,68.36
2022-12-25T10:23:45.900Z,68.41
2022-12-25T10:26:18.887Z,68.09
2022-12-25T10:28:51.667Z,67.61
2022-12-25T10:31:23.876Z,67.23
2022-12-25T10:33:55.408Z,67.30
2022-12-25T10:36:27.426Z,67.07
2022-12-25T10:38:59.021Z,66.95
2022-12-25T10:41:36.870Z,66.57
2022-12-25T10:44:15.156Z,66.38
2022-12-25T10:46:48.983Z,66.05
2022-12-25T10:49:21.381Z,65.62
2022-12-25T10:51:53.001Z,65.49
2022-12-25T10:54:25.371Z,65.35
2022-12-25T10:56:57.900Z,64.96
2022-12-25T10:59:29.859Z,64.79
2022-12-25T11:02:06.988Z,64.73
2022-12-25T11:04:38.626Z,64.53
2022-12-25T11:07:14.772Z,64.27
2022-12-25T11:09:51.797Z,64.32
2022-12-25T11:12:23.886Z,64.05
2022-12-25T11:14:58.867Z,63.83
2022-12-25T11:17:30.276Z,63.38
2022-12-25T11:20:02.527Z,63.37
2022-12-25T11:22:38.236Z,63.47
2022-12-25T11:25:16.623Z,63.11
2022-12-25T11:27:56.695Z,62.62
2022-12-25T11:30:28.374Z,62.72
2022-12-25T11:33:00.296Z,62.27
2022-12-25T11:35:33.285Z,62.42
2022-12-25T11:38:05.004Z,62.25
2022-12-25T11:40:37.266Z,62.20
2022-12-25T11:43:10.765Z,61.96
2022-12-25T11:45:43.022Z,62.13
2022-12-25T11:48:15.772Z,61.72
2022-12-25T11:50:48.348Z,61.91
2022-12-25T11:53:21.850Z,61.49
2022-12-25T11:55:55.670Z,61.24
2022-12-25T11:58:28.392Z,61.19
2022-12-25T12:00:59.703Z,60.72
2022-12-25T12:03:32.450Z,60.59
2022-12-25T12:06:05.005Z,60.47
2022-12-25T12:08:36.764Z,60.22
2022-12-25T12:11:16.941Z,60.26
2022-12-25T12:13:52.073Z,60.15
2022-12-25T12:16:23.538Z,60.01
2022-12-25T12:18:54.974Z,59.78
2022-12-25T12:21:27.758Z,59.73
2022-12-25T12:24:02.922Z,59.79
2022-12-25T12:26:37.028Z,59.59
2022-12-25T12:29:08.717Z,59.47
2022-12-25T12:31:41.896Z,59.59
2022-12-25T12:34:20.068Z,59.70
2022-12-25T12:36:51.667Z,59.71
2022-12-25T12:39:25.571Z,59.65
2022-12-25T12:41:56.762Z,59.42
2022-12-25T12:44:28.356Z,59.38
2022-12-25T12:47:00.471Z,59.52
2022-12-25T12:49:33.779Z,59.57
2022-12-25T12:52:05.892Z,59.41
2022-12-25T12:54:37.056Z,59.28
2022-12-25T12:57:10.192Z,59.28
2022-12-25T12:59:43.666Z,59.21
2022-12-25T13:02:31.815Z,59.20
2022-12-25T13:05:04.455Z,59.36
2022-12-25T13:07:44.182Z,59.53
2022-12-25T13:10:20.170Z,59.61
2022-12-25T13:12:53.917Z,59.68
2022-12-25T13:15:26.228Z,59.53
2022-12-25T13:17:57.477Z,59.44
2022-12-25T13:20:32.232Z,59.48
2022-12-25T13:23:13.750Z,59.14
2022-12-25T13:25:45.273Z,59.06
2022-12-25T13:28:16.956Z,59.06
2022-12-25T13:30:48.633Z,58.99
2022-12-25T13:33:20.960Z,58.57
2022-12-25T13:35:52.416Z,58.49
2022-12-25T13:38:23.972Z,58.43
2022-12-25T13:41:09.578Z,58.40
2022-12-25T13:43:41.115Z,58.07
2022-12-25T13:46:15.132Z,57.88
2022-12-25T13:48:46.587Z,57.94
2022-12-25T13:51:18.140Z,57.71
2022-12-25T13:53:49.596Z,57.79
2022-12-25T13:56:20.327Z,57.74
2022-12-25T13:58:54.579Z,57.71
2022-12-25T14:01:26.074Z,57.76
2022-12-25T14:03:57.965Z,57.61
2022-12-25T14:06:30.156Z,57.61
2022-12-25T14:09:01.475Z,57.53
2022-12-25T14:11:32.783Z,57.43
2022-12-25T14:14:05.477Z,57.43
2022-12-25T14:16:37.276Z,57.40
2022-12-25T14:19:22.355Z,57.43
2022-12-25T14:21:55.075Z,57.53
2022-12-25T14:24:26.530Z,57.44
2022-12-25T14:27:02.189Z,57.48
2022-12-25T14:29:37.179Z,57.47
2022-12-25T14:32:09.758Z,57.56
2022-12-25T14:34:41.056Z,57.66
2022-12-25T14:37:15.333Z,57.51
2022-12-25T14:39:48.220Z,57.46
2022-12-25T14:42:21.622Z,57.50
2022-12-25T14:45:03.459Z,57.55
2022-12-25T14:47:35.384Z,57.51
2022-12-25T14:50:15.931Z,57.56
2022-12-25T14:52:47.387Z,57.45
2022-12-25T14:55:20.944Z,57.37
2022-12-25T14:57:53.330Z,57.30
2022-12-25T15:00:25.610Z,57.34
2022-12-25T15:02:57.303Z,57.34
2022-12-25T15:05:33.069Z,57.21
2022-12-25T15:08:06.509Z,57.07
2022-12-25T15:13:29.969Z,56.98
2022-12-25T15:16:02.803Z,57.01
2022-12-25T15:18:35.976Z,57.08
2022-12-25T15:21:08.448Z,57.11
2022-12-25T15:23:39.982Z,57.09
2022-12-25T15:26:12.470Z,57.08
2022-12-25T15:28:43.701Z,57.24
2022-12-25T15:31:19.418Z,57.24
2022-12-25T15:33:51.065Z,57.00
2022-12-25T15:36:22.577Z,57.05
2022-12-25T15:38:54.025Z,56.86
2022-12-25T15:41:39.860Z,56.68
2022-12-25T15:44:11.602Z,56.43
2022-12-25T15:46:43.373Z,56.52
2022-12-25T15:49:15.412Z,56.26
2022-12-25T15:51:47.217Z,56.00
2022-12-25T15:54:18.511Z,55.73
2022-12-25T15:56:50.502Z,55.61
2022-12-25T15:59:22.039Z,55.73
2022-12-25T16:01:54.209Z,55.74
2022-12-25T16:04:26.224Z,55.46
2022-12-25T16:06:57.679Z,55.62
2022-12-25T16:09:29.070Z,55.54
2022-12-25T16:12:00.464Z,55.55
2022-12-25T16:14:31.916Z,55.64
2022-12-25T16:17:03.292Z,55.59
2022-12-25T16:19:34.565Z,55.51
2022-12-25T16:22:12.288Z,55.35
2022-12-25T16:24:43.576Z,55.53
2022-12-25T16:27:14.822Z,55.47
2022-12-25T16:29:46.031Z,55.53
2022-12-25T16:32:17.592Z,55.45
2022-12-25T16:34:49.762Z,55.51
2022-12-25T16:37:22.432Z,55.38
2022-12-25T16:39:54.034Z,55.35
2022-12-25T16:42:25.269Z,55.40
2022-12-25T16:44:56.575Z,55.33
2022-12-25T16:47:28.053Z,55.37
2022-12-25T16:49:59.685Z,55.20
2022-12-25T16:52:31.669Z,55.27
2022-12-25T16:55:03.181Z,55.13
2022-12-25T16:57:34.707Z,54.96
2022-12-25T17:00:08.855Z,54.65
2022-12-25T17:02:41.708Z,54.60
2022-12-25T17:05:13.669Z,54.41
2022-12-25T17:07:45.415Z,54.51
2022-12-25T17:10:17.428Z,54.24
2022-12-25T17:12:48.807Z,54.21
2022-12-25T17:15:20.594Z,54.26
2022-12-25T17:17:52.097Z,54.22
2022-12-25T17:20:23.482Z,54.17
2022-12-25T17:22:54.864Z,54.21
2022-12-25T17:25:26.928Z,54.39
2022-12-25T17:27:58.479Z,54.25
2022-12-25T17:30:30.103Z,54.31
2022-12-25T17:33:01.321Z,54.28
2022-12-25T17:35:32.588Z,54.15
2022-12-25T17:38:04.124Z,54.28
2022-12-25T17:40:35.340Z,54.03
2022-12-25T17:43:07.146Z,54.02
2022-12-25T17:45:39.175Z,53.89
2022-12-25T17:48:10.652Z,54.08
2022-12-25T17:50:42.212Z,54.08
2022-12-25T17:53:13.856Z,54.19
2022-12-25T17:55:45.516Z,53.94
2022-12-25T17:58:16.758Z,54.17
2022-12-25T18:00:48.035Z,54.11
2022-12-25T18:03:19.663Z,54.35
2022-12-25T18:05:51.486Z,54.12
2022-12-25T18:08:23.006Z,54.11
2022-12-25T18:10:54.339Z,54.12
2022-12-25T18:13:25.608Z,54.04
2022-12-25T18:15:57.188Z,53.97
2022-12-25T18:18:28.699Z,54.20
2022-12-25T18:21:00.247Z,53.91
2022-12-25T18:23:31.389Z,53.86
2022-12-25T18:26:03.654Z,53.97
2022-12-25T18:28:36.358Z,53.86
2022-12-25T18:31:11.567Z,53.76
2022-12-25T18:33:43.015Z,53.77
2022-12-25T18:36:14.755Z,54.14
2022-12-25T18:38:45.945Z,54.03
2022-12-25T18:41:17.432Z,54.07
2022-12-25T18:43:54.011Z,54.08
2022-12-25T18:46:27.473Z,54.10
2022-12-25T18:48:59.452Z,54.03
2022-12-25T18:51:36.632Z,54.00
2022-12-25T18:54:08.975Z,53.94
2022-12-25T18:56:40.611Z,53.88
2022-12-25T18:59:12.126Z,54.01
2022-12-25T19:01:43.458Z,53.88
2022-12-25T19:04:16.457Z,53.90
2022-12-25T19:06:49.471Z,54.11
2022-12-25T19:09:21.003Z,53.92
2022-12-25T19:11:53.886Z,54.02
2022-12-25T19:14:26.071Z,54.08
2022-12-25T19:16:57.590Z,54.08
2022-12-25T19:19:29.172Z,53.93
2022-12-25T19:22:00.632Z,54.07
2022-12-25T19:24:32.143Z,53.96
2022-12-25T19:27:03.359Z,53.97
2022-12-25T19:29:34.884Z,54.04
2022-12-25T19:32:06.569Z,53.95
2022-12-25T19:34:38.280Z,53.98
2022-12-25T19:37:15.559Z,53.97
2022-12-25T19:39:50.131Z,53.96
2022-12-25T19:42:22.290Z,54.13
2022-12-25T19:44:53.545Z,54.07
2022-12-25T19:47:25.431Z,54.14
2022-12-25T19:50:02.848Z,54.06
2022-12-25T19:52:37.672Z,54.02
2022-12-25T19:55:10.325Z,54.21
2022-12-25T19:57:46.413Z,54.10
2022-12-25T20:00:18.815Z,54.03
2022-12-25T20:02:50.889Z,53.96
2022-12-25T20:05:23.385Z,54.06
2022-12-25T20:07:56.608Z,54.03
2022-12-25T20:10:28.223Z,53.92
2022-12-25T20:12:59.851Z,54.09
2022-12-25T20:15:31.667Z,54.14
2022-12-25T20:18:03.342Z,54.25
2022-12-25T20:20:34.889Z,54.34
2022-12-25T20:23:06.781Z,54.15
2022-12-25T20:25:45.030Z,54.31
2022-12-25T20:28:16.567Z,54.44
2022-12-25T20:30:48.207Z,54.13
2022-12-25T20:33:19.853Z,54.26
2022-12-25T20:35:55.461Z,54.39
2022-12-25T20:38:28.865Z,54.26
2022-12-25T20:41:26.248Z,54.29
2022-12-25T20:43:55.990Z,54.26
2022-12-25T20:46:27.774Z,54.22
2022-12-25T20:49:02.855Z,54.13
2022-12-25T20:51:35.930Z,54.33
2022-12-25T20:54:09.588Z,54.36
2022-12-25T20:56:41.771Z,54.46
2022-12-25T20:59:14.925Z,54.43
2022-12-25T21:01:46.804Z,54.49
2022-12-25T21:04:18.592Z,54.37
2022-12-25T21:06:50.379Z,54.51
2022-12-25T21:09:21.693Z,54.48
2022-12-25T21:11:53.253Z,54.33
2022-12-25T21:14:26.621Z,54.48
2022-12-25T21:16:58.392Z,54.57
2022-12-25T21:19:30.089Z,54.63
2022-12-25T21:22:01.701Z,54.75
2022-12-25T21:24:32.982Z,54.49
2022-12-25T21:27:05.012Z,54.53
2022-12-25T21:29:36.586Z,54.49
2022-12-25T21:32:25.984Z,54.64
2022-12-25T21:34:57.234Z,54.64
2022-12-25T21:37:29.974Z,54.63
2022-12-25T21:40:01.565Z,54.71
2022-12-25T21:42:33.153Z,54.61
2022-12-25T21:45:06.149Z,54.61
2022-12-25T21:47:59.969Z,54.55
2022-12-25T21:50:47.000Z,54.69
2022-12-25T21:53:18.842Z,54.63
2022-12-25T21:56:00.748Z,54.79
2022-12-25T21:58:32.523Z,54.75
2022-12-25T22:01:04.895Z,54.97
2022-12-25T22:03:36.418Z,55.51
2022-12-25T22:06:25.855Z,55.07
2022-12-25T22:08:57.318Z,55.30
2022-12-25T22:11:47.049Z,55.45
2022-12-25T22:14:51.558Z,55.68
2022-12-25T22:17:43.316Z,55.80
2022-12-25T22:20:15.687Z,55.70
2022-12-25T22:22:47.167Z,55.78
2022-12-25T22:25:19.860Z,56.13
2022-12-25T22:27:53.605Z,56.80
2022-12-25T22:30:29.685Z,57.28
2022-12-25T22:33:03.175Z,57.72
2022-12-25T22:35:34.699Z,57.49
2022-12-25T22:38:06.397Z,57.74
2022-12-25T22:40:38.919Z,57.64
2022-12-25T22:43:10.453Z,57.79
2022-12-25T22:45:41.917Z,57.74
2022-12-25T22:48:13.805Z,57.61
2022-12-25T22:50:45.480Z,57.68
2022-12-25T22:53:17.008Z,57.54
2022-12-25T22:55:49.456Z,57.53
2022-12-25T22:58:21.376Z,57.61
2022-12-25T23:00:53.117Z,58.25
2022-12-25T23:03:24.616Z,58.67
2022-12-25T23:06:00.179Z,58.76
2022-12-25T23:08:31.428Z,58.93
2022-12-25T23:11:07.560Z,58.75
2022-12-25T23:13:57.285Z,59.08
2022-12-25T23:16:33.238Z,58.99
2022-12-25T23:19:22.551Z,58.95
2022-12-25T23:22:11.294Z,59.22
2022-12-25T23:25:05.600Z,59.39
2022-12-25T23:27:38.480Z,59.45
2022-12-25T23:30:11.314Z,59.43
2022-12-25T23:32:42.911Z,59.64
2022-12-25T23:35:14.977Z,59.61
2022-12-25T23:37:53.384Z,59.77
2022-12-25T23:40:25.525Z,59.69
2022-12-25T23:42:59.565Z,59.80
2022-12-25T23:45:32.863Z,59.72
2022-12-25T23:48:05.616Z,59.69
2022-12-25T23:50:40.505Z,59.91
2022-12-25T23:53:15.643Z,59.90
2022-12-25T23:55:53.298Z,59.94
2022-12-25T23:58:27.280Z,59.89
